Time;durP1;ratioP1;P1;durP2;ratioP2;P2;SDS_P1;SDS_P2;PMS_P1;PMS_P2;Temp;Humidity;BMP_temperature;BMP_pressure;BME280_temperature;BME280_humidity;BME280_pressure;Samples;Min_cycle;Max_cycle;Signal;HPM_P1;HPM_P2
2021/05/31 00:02:18;;;;;;;7.38;4.10;;;15.10;75.40;;;14.42;66.54;101345.50;5051532;28;20532;-76
2021/05/31 00:04:50;;;;;;;6.15;4.00;;;15.00;75.40;;;14.38;66.69;101344.19;5051989;28;20460;-76
2021/05/31 00:07:26;;;;;;;10.20;5.22;;;15.00;75.70;;;14.33;66.65;101346.63;5051678;28;20064;-76
2021/05/31 00:10:01;;;;;;;8.95;4.70;;;15.00;75.80;;;14.30;66.85;101340.69;5051517;28;20595;-76
2021/05/31 00:12:36;;;;;;;8.50;4.60;;;15.00;76.00;;;14.30;67.28;101348.91;5051224;28;20041;-76
2021/05/31 00:15:16;;;;;;;8.57;4.60;;;14.90;76.20;;;14.24;67.21;101347.75;5051635;28;20271;-76
2021/05/31 00:17:51;;;;;;;6.75;4.10;;;14.90;76.40;;;14.23;67.22;101346.06;5051515;28;20041;-76
2021/05/31 00:20:27;;;;;;;7.68;4.28;;;14.80;76.40;;;14.23;67.41;101335.13;5051226;28;20073;-76
2021/05/31 00:23:03;;;;;;;7.40;4.40;;;14.80;76.50;;;14.21;67.34;101337.22;5051553;28;20049;-76
2021/05/31 00:25:45;;;;;;;9.98;4.95;;;14.80;76.50;;;14.20;67.19;101332.75;5051278;28;20459;-76
2021/05/31 00:28:24;;;;;;;7.50;4.63;;;14.80;76.60;;;14.17;67.20;101341.38;5051564;28;20060;-76
2021/05/31 00:31:02;;;;;;;6.78;4.68;;;14.80;76.60;;;14.17;67.49;101335.88;5049603;28;20057;-76
2021/05/31 00:33:40;;;;;;;7.93;4.72;;;14.70;76.90;;;14.12;67.50;101332.84;5051475;28;20052;-76
2021/05/31 00:36:19;;;;;;;8.48;4.85;;;14.70;77.00;;;14.09;67.35;101336.84;5049478;28;20064;-76
2021/05/31 00:38:52;;;;;;;7.43;4.90;;;14.70;77.10;;;14.06;67.79;101334.47;5051254;28;20033;-76
2021/05/31 00:41:26;;;;;;;8.25;4.78;;;14.70;77.10;;;14.05;67.71;101324.53;5050910;28;20048;-76
2021/05/31 00:44:02;;;;;;;8.07;4.85;;;14.70;77.20;;;14.04;67.49;101325.59;5049924;28;20111;-76
2021/05/31 00:46:37;;;;;;;7.55;5.25;;;14.60;77.10;;;14.03;67.66;101318.41;5051011;28;20052;-76
2021/05/31 00:49:13;;;;;;;12.45;5.50;;;14.60;77.20;;;14.00;67.96;101325.09;5051177;28;20397;-76
2021/05/31 00:51:49;;;;;;;8.98;5.25;;;14.60;77.20;;;13.98;67.67;101316.22;5050849;28;20060;-76
2021/05/31 00:54:22;;;;;;;10.75;5.45;;;14.60;77.20;;;13.97;68.01;101330.94;5051035;28;20072;-76
2021/05/31 00:57:01;;;;;;;9.00;5.25;;;14.50;77.60;;;13.94;67.80;101320.38;5049646;28;20075;-76
2021/05/31 00:59:40;;;;;;;9.80;5.43;;;14.50;77.40;;;13.93;67.97;101326.88;5049957;28;20048;-76
2021/05/31 01:02:15;;;;;;;11.25;5.57;;;14.50;77.40;;;13.93;68.14;101320.56;5050068;28;20129;-76
2021/05/31 01:04:50;;;;;;;9.95;5.35;;;14.50;77.60;;;13.92;67.83;101322.47;5050451;28;20056;-76
2021/05/31 01:07:37;;;;;;;10.93;4.85;;;14.50;77.50;;;13.89;68.21;101318.19;5050873;28;20048;-76
2021/05/31 01:10:25;;;;;;;12.02;5.18;;;14.50;77.80;;;13.86;68.14;101320.47;5050284;28;20045;-76
2021/05/31 01:13:06;;;;;;;9.85;5.30;;;14.40;77.70;;;13.82;68.80;101317.25;5050556;28;20288;-76
2021/05/31 01:15:53;;;;;;;8.50;5.05;;;14.40;78.20;;;13.78;69.17;101320.53;5050566;28;20052;-76
2021/05/31 01:18:27;;;;;;;8.23;5.25;;;14.40;78.50;;;13.75;69.25;101326.41;5050636;28;20594;-76
2021/05/31 01:21:24;;;;;;;8.30;5.15;;;14.30;78.60;;;13.71;68.98;101316.84;5050158;28;20146;-76
2021/05/31 01:24:11;;;;;;;9.38;5.82;;;14.30;78.70;;;13.67;69.37;101319.13;5050453;28;20052;-76
2021/05/31 01:27:10;;;;;;;9.40;5.50;;;14.20;78.80;;;13.62;69.41;101327.03;5050251;28;20045;-76
2021/05/31 01:29:54;;;;;;;7.95;4.78;;;14.20;79.00;;;13.58;69.61;101326.53;5049983;28;20103;-76
2021/05/31 01:32:37;;;;;;;10.02;5.10;;;14.10;79.00;;;13.53;69.29;101315.28;5050433;28;20036;-76
2021/05/31 01:35:17;;;;;;;10.38;5.32;;;14.10;79.20;;;13.48;69.67;101321.34;5048580;28;20056;-76
2021/05/31 01:37:54;;;;;;;9.13;5.90;;;14.10;79.20;;;13.46;69.50;101323.41;5049986;28;20063;-76
2021/05/31 01:40:31;;;;;;;8.23;5.22;;;14.00;79.30;;;13.42;70.14;101329.41;5049724;28;20283;-76
2021/05/31 01:43:10;;;;;;;11.43;5.50;;;14.00;79.50;;;13.43;70.11;101323.75;5050159;28;20060;-76
2021/05/31 01:45:50;;;;;;;8.82;4.68;;;14.00;79.60;;;13.37;70.05;101321.75;5050015;28;20061;-76
2021/05/31 01:48:28;;;;;;;10.25;5.55;;;14.00;79.60;;;13.34;70.21;101321.28;5050018;28;20052;-76
2021/05/31 01:51:05;;;;;;;10.45;5.05;;;13.90;79.80;;;13.33;70.11;101325.91;5049622;28;20076;-76
2021/05/31 01:53:42;;;;;;;12.73;5.50;;;13.90;79.90;;;13.32;70.24;101320.63;5049935;28;20413;-76
2021/05/31 01:56:15;;;;;;;9.63;5.13;;;13.80;79.90;;;13.28;69.63;101326.41;5049646;28;20041;-76
2021/05/31 01:58:55;;;;;;;9.20;5.50;;;13.80;79.80;;;13.21;70.08;101325.44;5049644;28;20041;-76
2021/05/31 02:01:37;;;;;;;7.72;5.53;;;13.80;79.80;;;13.19;70.44;101316.56;5049518;28;20052;-76
2021/05/31 02:04:15;;;;;;;9.68;5.30;;;13.80;80.00;;;13.18;70.07;101314.88;5049547;28;20506;-76
2021/05/31 02:06:52;;;;;;;8.13;5.32;;;13.70;80.10;;;13.15;70.39;101323.41;5049441;28;20098;-76
2021/05/31 02:09:28;;;;;;;9.43;5.18;;;13.70;80.20;;;13.10;70.47;101314.94;5049394;28;20076;-76
2021/05/31 02:12:12;;;;;;;9.15;5.45;;;13.70;80.30;;;13.07;70.76;101318.03;5049080;28;20037;-76
2021/05/31 02:14:58;;;;;;;7.85;5.28;;;13.60;80.30;;;13.08;70.82;101322.47;5049481;28;20087;-76
2021/05/31 02:17:40;;;;;;;7.45;4.88;;;13.60;80.40;;;13.06;70.99;101316.31;5049293;28;20076;-76
2021/05/31 02:20:21;;;;;;;12.15;5.40;;;13.60;80.40;;;13.01;70.87;101311.41;5048563;28;20053;-76
2021/05/31 02:23:02;;;;;;;8.90;5.13;;;13.50;80.60;;;12.98;70.76;101309.03;5049503;28;20052;-76
2021/05/31 02:25:41;;;;;;;9.50;5.78;;;13.50;80.70;;;12.95;70.88;101308.56;5049289;28;20049;-76
2021/05/31 02:28:16;;;;;;;10.75;5.65;;;13.50;80.60;;;12.94;70.73;101302.22;5047879;28;20057;-76
2021/05/31 02:30:48;;;;;;;10.57;5.38;;;13.40;80.60;;;12.91;71.16;101308.91;5048949;28;20500;-76
2021/05/31 02:33:50;;;;;;;11.68;6.38;;;13.40;80.70;;;12.87;70.62;101296.63;5049219;28;20045;-76
2021/05/31 02:36:20;;;;;;;;;;;13.40;80.80;;;12.86;71.08;101310.47;5047519;28;20505;-76
2021/05/31 02:38:55;;;;;;;8.15;5.30;;;13.40;80.80;;;12.83;70.68;101298.03;5048791;28;19960;-76
2021/05/31 02:41:33;;;;;;;8.48;5.38;;;13.30;80.90;;;12.80;70.74;101306.59;5040539;28;20052;-76
2021/05/31 02:44:08;;;;;;;10.23;5.30;;;13.30;81.00;;;12.76;70.90;101299.78;5048582;28;20040;-76
2021/05/31 02:46:43;;;;;;;8.95;5.22;;;13.30;81.00;;;12.74;71.10;101296.38;5048698;28;20775;-76
2021/05/31 02:49:23;;;;;;;8.40;5.50;;;13.30;81.30;;;12.69;71.46;101305.09;5048852;28;20048;-76
2021/05/31 02:52:01;;;;;;;11.07;5.70;;;13.20;81.20;;;12.67;71.52;101301.69;5048803;28;20052;-76
2021/05/31 02:54:37;;;;;;;9.25;5.90;;;13.20;81.10;;;12.65;71.42;101298.28;5048881;28;20786;-76
2021/05/31 02:57:12;;;;;;;10.40;6.07;;;13.20;81.40;;;12.60;71.30;101299.84;5048584;28;20040;-76
2021/05/31 02:59:48;;;;;;;9.38;5.78;;;13.10;81.40;;;12.61;71.46;101298.84;5048422;28;20073;-76
2021/05/31 03:02:20;;;;;;;9.70;5.57;;;13.10;81.40;;;12.58;71.37;101299.19;5048687;28;20053;-76
2021/05/31 03:04:56;;;;;;;12.98;6.05;;;13.10;81.40;;;12.55;71.99;101294.94;5048644;28;20048;-76
2021/05/31 03:07:29;;;;;;;9.98;5.38;;;13.10;81.80;;;12.55;71.38;101294.09;5048625;28;20052;-76
2021/05/31 03:10:04;;;;;;;8.35;5.15;;;13.00;81.50;;;12.53;71.45;101299.75;5048288;28;20045;-76
2021/05/31 03:12:42;;;;;;;10.60;5.80;;;13.00;81.60;;;12.50;71.84;101298.19;5048405;28;20463;-76
2021/05/31 03:15:22;;;;;;;10.05;5.97;;;13.00;81.70;;;12.47;71.99;101301.31;5048288;28;20045;-76
2021/05/31 03:17:57;;;;;;;10.60;6.27;;;13.00;81.70;;;12.49;71.75;101303.84;5063283;28;20053;-75
2021/05/31 03:20:38;;;;;;;8.07;5.40;;;13.00;81.80;;;12.46;71.67;101299.59;5048038;28;20045;-76
2021/05/31 03:23:16;;;;;;;10.00;6.37;;;13.00;81.80;;;12.45;71.80;101300.63;5048321;28;20045;-76
2021/05/31 03:25:49;;;;;;;9.25;5.93;;;12.90;82.00;;;12.43;72.11;101301.81;5046747;28;20079;-75
2021/05/31 03:28:27;;;;;;;11.30;5.65;;;12.90;82.20;;;12.39;71.96;101298.59;5045501;28;20052;-76
2021/05/31 03:31:04;;;;;;;8.10;5.90;;;12.90;82.20;;;12.38;72.03;101304.25;5045888;28;20516;-76
2021/05/31 03:33:39;;;;;;;9.45;5.80;;;12.90;82.30;;;12.36;72.19;101300.84;5047456;28;20041;-76
2021/05/31 03:36:19;;;;;;;10.15;6.00;;;12.90;82.20;;;12.34;72.17;101303.75;5047952;28;20102;-76
2021/05/31 03:38:54;;;;;;;10.77;5.95;;;12.80;82.20;;;12.31;72.54;101301.34;5047773;28;20041;-76
2021/05/31 03:41:30;;;;;;;11.20;5.75;;;12.80;82.30;;;12.30;72.30;101307.88;5047776;28;20124;-76
2021/05/31 03:44:02;;;;;;;11.70;6.15;;;12.80;82.40;;;12.26;72.43;101310.09;5047603;28;20079;-76
2021/05/31 03:46:37;;;;;;;9.68;5.75;;;12.80;82.40;;;12.25;72.63;101313.00;5047142;28;20049;-76
2021/05/31 03:49:15;;;;;;;10.45;5.38;;;12.80;82.50;;;12.25;72.59;101313.00;5047795;28;20421;-76
2021/05/31 03:52:10;;;;;;;10.48;5.60;;;12.80;82.70;;;12.23;72.88;101315.03;5047920;28;20051;-77
2021/05/31 03:54:42;;;;;;;8.13;5.38;;;12.80;82.70;;;12.23;72.80;101315.03;5047784;28;20041;-77
2021/05/31 03:57:20;;;;;;;9.50;5.25;;;12.80;82.70;;;12.21;73.00;101317.09;4939090;23;3922464;-78
2021/05/31 03:59:58;;;;;;;8.50;5.65;;;12.80;83.00;;;12.23;72.99;101306.84;5067216;28;20068;-77
2021/05/31 04:02:33;;;;;;;9.88;5.40;;;12.80;83.20;;;12.24;73.06;101309.41;5068080;28;20127;-78
2021/05/31 04:05:15;;;;;;;10.50;5.53;;;12.80;83.30;;;12.23;73.79;101306.84;5068017;28;20060;-78
2021/05/31 04:13:29;;;;;;;10.25;5.35;;;12.80;83.90;;;12.27;73.80;101319.13;5066111;28;20700;-77
2021/05/31 04:16:07;;;;;;;10.45;6.03;;;12.80;83.80;;;12.29;74.00;101314.34;5066597;28;20047;-78
2021/05/31 04:18:42;;;;;;;9.93;5.55;;;12.90;84.10;;;12.34;74.27;101317.41;5067815;28;20083;-78
2021/05/31 04:21:15;;;;;;;10.43;6.13;;;12.90;84.10;;;12.36;74.46;101315.34;5067665;28;20059;-78
2021/05/31 04:23:57;;;;;;;9.23;6.00;;;12.90;84.30;;;12.42;74.26;101309.16;5067835;28;20515;-77
2021/05/31 04:26:36;;;;;;;11.65;6.20;;;13.00;84.40;;;12.47;74.77;101317.69;5067680;28;20044;-77
2021/05/31 04:29:18;;;;;;;11.50;6.30;;;13.00;84.50;;;12.51;74.48;101307.25;5067690;28;20044;-77
2021/05/31 04:31:50;;;;;;;;;;;13.10;84.60;;;12.56;74.82;101306.72;5068039;28;20045;-77
2021/05/31 04:34:28;;;;;;;10.45;6.00;;;13.10;84.70;;;12.63;74.51;101304.97;5066237;28;19928;-77
2021/05/31 04:37:03;;;;;;;11.18;6.28;;;13.20;84.60;;;12.69;74.56;101304.25;5067587;28;20044;-78
2021/05/31 04:39:43;;;;;;;10.55;6.10;;;13.20;84.60;;;12.70;75.30;101295.03;5066853;28;20048;-77
2021/05/31 04:42:18;;;;;;;12.30;6.28;;;13.30;84.90;;;12.78;75.09;101303.19;5067765;28;20048;-77
2021/05/31 04:44:54;;;;;;;11.05;6.50;;;13.30;84.80;;;12.85;74.78;101304.16;5070007;28;20504;-77
2021/05/31 04:47:32;;;;;;;9.75;6.00;;;13.40;84.70;;;12.92;74.69;101304.28;5071207;28;20439;-77
2021/05/31 04:50:11;;;;;;;10.65;6.88;;;13.50;84.60;;;13.00;74.49;101306.09;5070792;28;20072;-78
2021/05/31 04:52:49;;;;;;;14.80;7.53;;;13.60;84.40;;;13.10;73.89;101306.75;5071212;28;20520;-77
2021/05/31 04:55:40;;;;;;;15.15;7.38;;;13.60;84.10;;;13.17;74.14;101302.22;5071178;28;20060;-76
2021/05/31 04:58:18;;;;;;;15.65;7.60;;;13.80;84.10;;;13.24;74.73;101295.00;5070648;28;20263;-76
2021/05/31 05:00:57;;;;;;;20.20;7.75;;;13.90;84.20;;;13.34;73.71;101296.66;5070598;28;20044;-76
2021/05/31 05:03:32;;;;;;;13.27;7.40;;;13.90;83.60;;;13.41;73.74;101300.38;5070863;28;20462;-77
2021/05/31 05:06:10;;;;;;;15.52;7.30;;;14.00;84.30;;;13.48;73.94;101293.16;5070868;28;20052;-75
2021/05/31 05:08:50;;;;;;;11.60;7.32;;;14.10;84.00;;;13.54;73.80;101295.13;5070881;28;20397;-75
2021/05/31 05:11:34;;;;;;;14.15;7.78;;;14.20;83.00;;;13.58;73.51;101288.25;5070661;28;20048;-76
2021/05/31 05:14:12;;;;;;;12.32;7.97;;;14.30;82.50;;;13.66;73.23;101293.63;5070912;28;20044;-75
2021/05/31 05:16:50;;;;;;;15.18;7.82;;;14.40;82.10;;;13.72;73.10;101293.94;5070765;28;20454;-74
2021/05/31 05:19:28;;;;;;;16.42;8.63;;;14.40;82.00;;;13.77;72.91;101296.97;5070548;28;20036;-74
2021/05/31 05:22:05;;;;;;;17.52;8.82;;;14.50;81.80;;;13.82;72.86;101297.25;5068283;28;20051;-74
2021/05/31 05:24:38;;;;;;;14.10;8.70;;;14.60;81.30;;;13.85;72.71;101292.25;5059170;28;20098;-75
2021/05/31 05:27:18;;;;;;;19.00;8.82;;;14.70;81.20;;;13.90;72.32;101286.22;5070293;28;20135;-75
2021/05/31 05:29:50;;;;;;;14.73;7.80;;;14.80;81.00;;;13.96;72.99;101290.09;5070038;28;20053;-75
2021/05/31 05:32:28;;;;;;;18.95;9.27;;;14.80;81.10;;;13.99;72.40;101287.84;5070278;28;20044;-75
2021/05/31 05:35:09;;;;;;;14.10;8.88;;;14.90;80.80;;;14.03;72.31;101291.91;5070199;28;20044;-75
2021/05/31 05:37:54;;;;;;;15.38;9.48;;;14.90;80.40;;;14.10;71.98;101293.88;5068144;28;20406;-75
2021/05/31 05:43:47;;;;;;;17.45;10.00;;;15.10;79.70;;;14.28;71.20;101295.19;5049930;28;20036;-76
2021/05/31 05:46:26;;;;;;;16.60;9.47;;;15.20;79.30;;;14.45;70.51;101289.53;5048580;28;20055;-76
2021/05/31 05:49:03;;;;;;;17.88;10.05;;;16.20;77.40;;;14.66;70.53;101286.84;5058646;28;20122;-76
2021/05/31 05:51:41;;;;;;;18.58;9.70;;;17.40;74.10;;;14.88;69.81;101292.34;5069272;28;20048;-76
2021/05/31 05:54:14;;;;;;;18.10;9.82;;;18.30;70.50;;;15.10;68.75;101286.88;5068495;28;20642;-78
2021/05/31 05:56:51;;;;;;;14.05;8.95;;;18.80;67.60;;;15.30;68.28;101278.88;5068818;28;20060;-78
2021/05/31 05:59:28;;;;;;;21.02;9.55;;;19.20;66.50;;;15.50;67.72;101290.00;5069569;28;20504;-78
2021/05/31 06:02:06;;;;;;;18.23;9.70;;;19.40;65.30;;;15.71;66.97;101283.66;5069774;28;20515;-78
2021/05/31 06:04:45;;;;;;;18.23;10.43;;;19.40;64.90;;;15.88;65.98;101276.81;5069672;28;20068;-78
2021/05/31 06:07:23;;;;;;;22.50;10.30;;;19.30;64.50;;;16.10;66.16;101283.06;5069670;28;20066;-77
2021/05/31 06:10:01;;;;;;;20.10;9.65;;;19.30;65.10;;;16.28;64.71;101278.94;5069205;28;20055;-76
2021/05/31 06:12:39;;;;;;;21.98;10.10;;;19.30;64.00;;;16.42;64.53;101287.03;5067652;28;20452;-76
2021/05/31 06:15:19;;;;;;;21.83;10.18;;;19.40;63.70;;;16.57;64.05;101280.56;5057963;28;20571;-76
2021/05/31 06:17:57;;;;;;;16.93;9.67;;;19.70;63.10;;;16.69;63.01;101289.91;5069283;28;20044;-76
2021/05/31 06:20:35;;;;;;;17.88;9.43;;;19.90;61.70;;;16.78;62.61;101282.31;5068991;28;20296;-76
2021/05/31 06:23:14;;;;;;;20.42;10.02;;;20.30;59.70;;;16.91;62.31;101278.81;5068035;28;20049;-77
2021/05/31 06:25:50;;;;;;;18.40;9.65;;;20.60;58.00;;;16.99;62.70;101270.34;5068484;28;20059;-76
2021/05/31 06:28:25;;;;;;;17.10;9.20;;;21.10;57.40;;;17.05;62.22;101280.50;5069237;28;20056;-77
2021/05/31 06:31:07;;;;;;;13.45;8.27;;;21.00;56.70;;;17.07;62.26;101266.56;5068515;28;20445;-77
2021/05/31 06:33:43;;;;;;;13.57;8.60;;;20.50;58.70;;;17.05;62.99;101274.16;5068661;28;20090;-76
2021/05/31 06:36:15;;;;;;;18.00;8.48;;;20.10;60.90;;;17.02;63.70;101266.31;5068910;28;20048;-76
2021/05/31 06:38:53;;;;;;;12.48;7.97;;;19.90;62.50;;;16.98;62.84;101266.75;5069099;28;20474;-76
2021/05/31 06:41:28;;;;;;;12.43;7.90;;;19.60;61.90;;;16.96;62.65;101266.13;5068747;28;20044;-77
2021/05/31 06:44:04;;;;;;;19.35;8.60;;;19.40;63.10;;;16.96;63.26;101266.13;5067379;28;20040;-77
2021/05/31 06:46:44;;;;;;;11.48;7.82;;;19.30;64.60;;;16.92;62.72;101269.47;5067305;28;20101;-78
2021/05/31 06:49:23;;;;;;;12.75;8.18;;;19.20;64.10;;;16.88;63.48;101262.72;5068405;28;20135;-78
2021/05/31 06:52:02;;;;;;;12.15;7.57;;;19.00;64.70;;;16.88;63.83;101265.47;5068468;28;20048;-78
2021/05/31 06:54:40;;;;;;;15.60;7.82;;;19.00;65.80;;;16.87;63.64;101263.75;5068710;28;20511;-78
2021/05/31 06:57:16;;;;;;;14.05;7.57;;;19.00;65.30;;;16.87;64.17;101263.75;5068316;28;20063;-78
2021/05/31 06:59:50;;;;;;;14.30;8.05;;;19.00;66.40;;;16.86;63.57;101264.81;5068157;28;20100;-78
2021/05/31 07:02:27;;;;;;;19.33;8.30;;;18.90;65.70;;;16.87;64.64;101266.50;5067468;28;20045;-78
2021/05/31 07:05:03;;;;;;;16.45;7.63;;;18.90;66.60;;;16.85;63.32;101257.63;5068460;28;20499;-78
2021/05/31 07:07:41;;;;;;;17.40;7.82;;;18.90;65.60;;;16.85;63.17;101263.13;5068057;28;20413;-78
2021/05/31 07:10:18;;;;;;;14.73;7.55;;;18.90;65.70;;;16.87;63.05;101256.38;5068047;28;20040;-78
2021/05/31 07:12:56;;;;;;;14.18;7.50;;;18.90;65.70;;;16.88;64.09;101262.72;5066715;28;20178;-78
2021/05/31 07:15:30;;;;;;;15.48;7.18;;;18.90;66.50;;;16.89;63.80;101254.25;5067955;28;20482;-78
2021/05/31 07:18:12;;;;;;;13.73;7.07;;;18.90;66.30;;;16.94;65.08;101256.38;5068104;28;20504;-78
2021/05/31 07:20:52;;;;;;;13.73;7.30;;;19.00;66.90;;;17.04;65.46;101251.34;5048119;28;20135;-78
2021/05/31 07:23:31;;;;;;;16.58;7.57;;;19.00;67.20;;;17.05;64.75;101253.00;5049942;28;20118;-78
2021/05/31 07:26:07;;;;;;;12.82;7.63;;;19.00;66.90;;;17.06;64.71;101249.22;5066615;28;20048;-78
2021/05/31 07:28:42;;;;;;;11.90;6.63;;;19.00;66.60;;;17.07;65.10;101239.88;5067755;28;20040;-78
2021/05/31 07:31:17;;;;;;;16.98;7.45;;;19.10;67.50;;;17.12;65.46;101239.28;5067960;28;20516;-78
2021/05/31 07:33:57;;;;;;;12.73;7.07;;;19.10;67.70;;;17.12;63.91;101237.38;5067775;28;20076;-78
2021/05/31 07:36:30;;;;;;;15.27;7.53;;;19.10;66.40;;;17.15;64.01;101244.34;5067577;28;20044;-78
2021/05/31 07:39:00;;;;;;;16.88;7.25;;;19.10;66.20;;;17.18;64.41;101233.75;5067863;28;20385;-78
2021/05/31 07:41:38;;;;;;;11.80;6.57;;;19.10;66.50;;;17.22;65.11;101233.34;5066216;28;20052;-78
2021/05/31 07:44:11;;;;;;;15.45;7.18;;;19.20;67.40;;;17.39;68.75;101227.22;5066478;28;20063;-79
2021/05/31 07:46:49;;;;;;;16.58;7.18;;;19.20;70.90;;;17.49;66.40;101225.94;5067340;28;20046;-79
2021/05/31 07:49:44;;;;;;;13.98;6.63;;;19.30;69.00;;;17.44;65.22;101226.59;5067840;28;20070;-79
2021/05/31 07:52:24;;;;;;;12.40;6.13;;;19.40;67.50;;;17.51;64.61;101218.31;5068000;28;20044;-79
2021/05/31 07:55:00;;;;;;;12.20;6.57;;;19.40;67.00;;;17.58;65.59;101231.00;5067578;28;20048;-79
2021/05/31 07:57:33;;;;;;;11.32;5.75;;;19.40;67.90;;;17.65;63.82;101222.75;5067851;28;20044;-78
2021/05/31 08:00:13;;;;;;;11.35;5.47;;;19.50;66.30;;;17.64;62.04;101222.97;5065879;28;20083;-79
2021/05/31 08:02:53;;;;;;;8.82;5.40;;;19.50;64.70;;;17.78;65.08;101219.97;5067923;28;20056;-79
2021/05/31 08:05:29;;;;;;;15.27;5.47;;;19.60;67.70;;;17.83;62.76;101218.47;5067579;28;20049;-79
2021/05/31 08:08:07;;;;;;;10.70;5.60;;;19.60;65.90;;;17.93;62.19;101221.66;5068040;28;20044;-77
2021/05/31 08:10:43;;;;;;;8.85;4.90;;;19.70;65.60;;;17.97;62.62;101217.41;5065969;28;20055;-77
2021/05/31 08:13:21;;;;;;;13.32;6.07;;;19.70;65.50;;;17.94;62.22;101218.69;5067986;28;20067;-77
2021/05/31 08:16:00;;;;;;;11.32;5.60;;;19.70;64.40;;;17.86;61.01;101220.81;5067585;28;20055;-77
2021/05/31 08:18:32;;;;;;;12.98;5.78;;;19.70;63.60;;;17.88;59.34;101224.22;5066576;28;20057;-77
2021/05/31 08:21:12;;;;;;;12.70;4.90;;;19.70;62.30;;;17.93;61.97;101216.13;5071127;28;20041;-76
2021/05/31 08:23:48;;;;;;;9.57;5.40;;;19.60;64.50;;;17.94;59.42;101218.69;5071338;28;20049;-76
2021/05/31 08:26:26;;;;;;;14.20;5.75;;;19.70;62.60;;;17.94;59.36;101212.34;5069170;28;20504;-77
2021/05/31 08:29:04;;;;;;;14.65;5.32;;;19.70;62.40;;;18.03;61.93;101211.03;5067974;28;20052;-77
2021/05/31 08:31:41;;;;;;;12.10;6.20;;;19.80;63.80;;;18.12;61.06;101214.38;5054377;28;20060;-78
2021/05/31 08:34:16;;;;;;;13.20;5.65;;;19.80;63.80;;;18.07;58.76;101212.28;5071517;28;20048;-79
2021/05/31 08:36:54;;;;;;;10.23;5.35;;;19.90;61.90;;;18.10;57.89;101211.00;5070564;28;20673;-79
2021/05/31 08:39:32;;;;;;;14.55;6.18;;;19.90;61.20;;;18.19;59.63;101200.59;5070968;28;20041;-79
2021/05/31 08:42:10;;;;;;;11.23;5.95;;;19.90;63.40;;;18.17;58.72;101201.66;5071338;28;20394;-79
2021/05/31 08:44:47;;;;;;;11.95;5.38;;;19.90;61.70;;;18.19;59.29;101204.19;5070970;28;20049;-80
2021/05/31 08:47:23;;;;;;;11.40;5.40;;;19.90;61.70;;;18.13;57.47;101210.59;5070996;28;20388;-78
2021/05/31 08:50:04;;;;;;;14.32;5.82;;;19.90;60.20;;;18.13;57.62;101203.16;5070938;28;20094;-79
2021/05/31 08:52:45;;;;;;;10.90;5.50;;;19.90;60.20;;;18.16;59.88;101199.97;5070773;28;20125;-77
2021/05/31 08:55:22;;;;;;;10.70;5.57;;;20.00;61.90;;;18.27;61.22;101206.69;5070891;28;20810;-78
2021/05/31 08:57:58;;;;;;;11.25;4.80;;;20.00;63.50;;;18.29;57.57;101193.53;5070850;28;20425;-78
2021/05/31 09:00:40;;;;;;;11.68;6.20;;;20.00;60.80;;;18.24;56.66;101204.38;5070396;28;20044;-78
2021/05/31 09:03:21;;;;;;;11.70;5.72;;;20.00;59.20;;;18.22;56.58;101203.75;5070143;28;20040;-78
2021/05/31 09:06:04;;;;;;;9.95;4.95;;;20.00;59.00;;;18.20;55.70;101203.13;5070165;28;20044;-78
2021/05/31 09:09:03;;;;;;;10.20;5.70;;;20.00;58.30;;;18.16;56.15;101188.94;5066198;28;20048;-78
2021/05/31 09:11:38;;;;;;;11.82;4.90;;;20.00;58.20;;;18.16;56.33;101197.22;5062634;28;20051;-78
2021/05/31 09:14:20;;;;;;;12.68;6.40;;;20.00;58.90;;;18.15;56.52;101197.44;5058208;28;20452;-78
2021/05/31 09:16:58;;;;;;;12.10;5.65;;;20.00;58.90;;;18.15;56.12;101195.50;5054528;28;20076;-78
2021/05/31 09:19:36;;;;;;;11.68;5.25;;;20.10;59.00;;;18.15;56.01;101197.44;5064091;28;20036;-78
2021/05/31 09:22:15;;;;;;;12.95;5.47;;;20.00;58.40;;;18.17;58.89;101195.31;5070668;28;20633;-78
2021/05/31 09:25:03;;;;;;;18.60;6.30;;;20.00;62.10;;;18.09;55.72;101187.28;5070207;28;20044;-78
2021/05/31 09:27:41;;;;;;;14.70;6.35;;;19.90;58.30;;;18.02;56.75;101194.72;5070629;28;20044;-78
2021/05/31 09:30:19;;;;;;;10.90;5.15;;;19.90;58.30;;;18.03;54.90;101194.50;5068871;28;20534;-78
2021/05/31 09:32:58;;;;;;;13.80;5.55;;;19.80;57.50;;;18.08;55.91;101182.84;5070192;28;20040;-79
2021/05/31 09:35:36;;;;;;;9.75;5.63;;;19.80;58.40;;;18.04;55.38;101182.41;5070117;28;20041;-79
2021/05/31 09:38:16;;;;;;;13.57;5.22;;;19.80;58.20;;;18.06;53.98;101182.22;5070383;28;20044;-79
2021/05/31 09:41:03;;;;;;;8.57;5.30;;;19.80;57.10;;;18.03;53.99;101180.75;5070110;28;20057;-79
2021/05/31 09:43:41;;;;;;;11.52;5.50;;;19.80;57.30;;;18.11;54.26;101186.00;5070038;28;20044;-79
2021/05/31 09:46:19;;;;;;;14.85;5.53;;;19.80;57.20;;;18.13;54.65;101177.53;5054670;28;20056;-79
2021/05/31 09:48:57;;;;;;;10.82;5.57;;;19.80;57.50;;;18.13;54.45;101183.03;5068738;28;20040;-81
2021/05/31 09:51:32;;;;;;;9.30;4.90;;;19.80;57.30;;;18.15;54.06;101184.50;5066350;28;20055;-82
2021/05/31 09:54:10;;;;;;;12.30;5.00;;;19.80;57.60;;;18.16;54.40;101182.56;5069391;28;20055;-79
2021/05/31 09:56:50;;;;;;;9.95;5.00;;;19.90;57.40;;;18.15;53.37;101189.16;5100078;22;20046;-77
2021/05/31 09:59:30;;;;;;;10.10;5.13;;;19.90;56.50;;;18.13;52.56;101174.78;5013283;28;20053;-78
2021/05/31 10:02:09;;;;;;;12.93;5.75;;;19.90;56.00;;;18.19;54.94;101171.13;5026802;28;20049;-78
2021/05/31 10:04:53;;;;;;;9.52;4.93;;;19.90;57.50;;;18.30;53.02;101172.34;5016026;28;20104;-79
2021/05/31 10:07:43;;;;;;;10.02;5.00;;;20.00;57.00;;;18.37;53.32;101173.16;5007817;28;20049;-79
2021/05/31 10:10:22;;;;;;;9.98;4.95;;;20.00;56.60;;;18.42;54.36;101167.00;4994310;28;20050;-79
2021/05/31 10:13:02;;;;;;;10.70;5.28;;;20.10;57.20;;;18.50;54.92;101172.22;5003539;28;20414;-80
2021/05/31 10:15:41;;;;;;;12.05;5.55;;;20.20;57.40;;;18.47;53.65;101164.44;5006781;28;20073;-81
2021/05/31 10:18:21;;;;;;;8.27;4.75;;;20.20;56.70;;;18.47;53.29;101159.75;4996502;28;20044;-79
2021/05/31 10:20:59;;;;;;;11.68;5.45;;;20.20;56.50;;;18.61;55.93;101152.22;4990363;28;20057;-79
2021/05/31 10:23:34;;;;;;;11.18;5.40;;;20.30;58.50;;;18.61;53.12;101163.25;4991243;28;20046;-79
2021/05/31 10:26:12;;;;;;;10.05;4.90;;;20.30;56.40;;;18.56;52.89;101161.19;5009749;28;20069;-81
2021/05/31 10:28:47;;;;;;;10.68;5.30;;;20.30;56.00;;;18.56;51.95;101160.31;5009698;28;20037;-80
2021/05/31 10:31:27;;;;;;;10.80;5.45;;;20.30;54.70;;;18.62;53.74;101148.41;5010022;28;20061;-80
2021/05/31 10:34:08;;;;;;;9.52;5.20;;;20.30;56.30;;;18.57;54.26;101151.00;5027881;28;20147;-82
2021/05/31 10:36:50;;;;;;;10.48;5.50;;;20.30;57.10;;;18.57;55.46;101156.50;5015252;28;20050;-78
2021/05/31 10:39:33;;;;;;;11.25;6.25;;;20.30;57.60;;;18.63;55.46;101157.53;5009236;28;20120;-77
2021/05/31 10:42:14;;;;;;;14.40;6.20;;;20.40;58.50;;;18.55;54.07;101147.63;5007173;28;20430;-78
2021/05/31 10:44:51;;;;;;;13.43;5.68;;;20.40;57.00;;;18.62;56.45;101147.56;5009330;28;20108;-79
2021/05/31 10:47:35;;;;;;;11.68;5.43;;;20.40;59.00;;;18.59;53.50;101143.34;5009478;28;20087;-79
2021/05/31 10:50:28;;;;;;;10.93;5.28;;;20.40;56.70;;;18.62;54.79;101142.91;5009082;28;20045;-78
2021/05/31 10:53:04;;;;;;;11.75;5.35;;;20.40;57.10;;;18.70;55.31;101134.34;4994930;28;20046;-77
2021/05/31 10:55:54;;;;;;;8.18;4.38;;;20.50;57.80;;;18.67;54.27;101133.97;4989662;28;20454;-77
2021/05/31 10:58:38;;;;;;;11.52;5.50;;;20.50;57.10;;;18.64;54.38;101134.38;4989251;28;20049;-78
2021/05/31 11:01:17;;;;;;;12.20;5.30;;;20.40;56.90;;;18.60;53.24;101138.66;5001257;28;20055;-77
2021/05/31 11:04:00;;;;;;;9.27;5.30;;;20.40;56.40;;;18.60;54.70;101123.00;5009277;28;20052;-77